sensor_id;sensor_type;location;lat;lon;timestamp;pressure;altitude;pressure_sealevel;temperature;humidity
42111;BME280;27766;52.174;5.456;2023-04-28T00:02:18;101334.75;;;9.70;72.67
42111;BME280;27766;52.174;5.456;2023-04-28T00:04:45;101333.69;;;9.63;71.90
42111;BME280;27766;52.174;5.456;2023-04-28T00:07:13;101342.31;;;9.64;73.12
42111;BME280;27766;52.174;5.456;2023-04-28T00:09:40;101346.53;;;9.60;74.74
42111;BME280;27766;52.174;5.456;2023-04-28T00:12:07;101334.53;;;9.62;76.04
42111;BME280;27766;52.174;5.456;2023-04-28T00:14:35;101337.06;;;9.61;72.78
42111;BME280;27766;52.174;5.456;2023-04-28T00:17:02;101323.19;;;9.57;74.42
42111;BME280;27766;52.174;5.456;2023-04-28T00:19:29;101328.53;;;9.63;76.17
42111;BME280;27766;52.174;5.456;2023-04-28T00:21:56;101308.38;;;9.52;76.34
42111;BME280;27766;52.174;5.456;2023-04-28T00:24:23;101313.75;;;9.59;77.72
42111;BME280;27766;52.174;5.456;2023-04-28T00:26:51;101309.09;;;9.47;74.65
42111;BME280;27766;52.174;5.456;2023-04-28T00:29:18;101308.19;;;9.45;75.68
42111;BME280;27766;52.174;5.456;2023-04-28T00:31:45;101300.50;;;9.48;77.67
42111;BME280;27766;52.174;5.456;2023-04-28T00:34:13;101298.81;;;9.49;76.86
42111;BME280;27766;52.174;5.456;2023-04-28T00:36:41;101296.16;;;9.47;77.75
42111;BME280;27766;52.174;5.456;2023-04-28T00:39:08;101277.09;;;9.42;79.57
42111;BME280;27766;52.174;5.456;2023-04-28T00:41:36;101275.47;;;9.46;77.23
42111;BME280;27766;52.174;5.456;2023-04-28T00:44:03;101277.22;;;9.47;79.34
42111;BME280;27766;52.174;5.456;2023-04-28T00:46:30;101283.22;;;9.46;76.20
42111;BME280;27766;52.174;5.456;2023-04-28T00:48:59;101272.84;;;9.44;77.73
42111;BME280;27766;52.174;5.456;2023-04-28T00:51:26;101275.44;;;9.44;78.98
42111;BME280;27766;52.174;5.456;2023-04-28T00:53:55;101276.22;;;9.42;81.62
42111;BME280;27766;52.174;5.456;2023-04-28T00:56:23;101277.09;;;9.42;83.70
42111;BME280;27766;52.174;5.456;2023-04-28T00:58:50;101281.28;;;9.39;87.12
42111;BME280;27766;52.174;5.456;2023-04-28T01:01:17;101274.34;;;9.38;87.54
42111;BME280;27766;52.174;5.456;2023-04-28T01:03:45;101274.22;;;9.33;88.21
42111;BME280;27766;52.174;5.456;2023-04-28T01:06:13;101273.41;;;9.35;86.99
42111;BME280;27766;52.174;5.456;2023-04-28T01:08:41;101261.28;;;9.33;86.88
42111;BME280;27766;52.174;5.456;2023-04-28T01:11:08;101265.69;;;9.35;90.49
42111;BME280;27766;52.174;5.456;2023-04-28T01:13:40;101267.41;;;9.35;86.55
42111;BME280;27766;52.174;5.456;2023-04-28T01:16:07;101263.06;;;9.34;88.32
42111;BME280;27766;52.174;5.456;2023-04-28T01:18:34;101256.91;;;9.30;91.42
42111;BME280;27766;52.174;5.456;2023-04-28T01:21:02;101255.16;;;9.29;97.49
42111;BME280;27766;52.174;5.456;2023-04-28T01:23:30;101259.47;;;9.29;94.88
42111;BME280;27766;52.174;5.456;2023-04-28T01:25:57;101255.13;;;9.28;98.67
42111;BME280;27766;52.174;5.456;2023-04-28T01:28:24;101248.31;;;9.30;100.00
42111;BME280;27766;52.174;5.456;2023-04-28T01:30:52;101236.03;;;9.23;100.00
42111;BME280;27766;52.174;5.456;2023-04-28T01:33:19;101250.00;;;9.29;100.00
42111;BME280;27766;52.174;5.456;2023-04-28T01:35:46;101243.03;;;9.27;100.00
42111;BME280;27766;52.174;5.456;2023-04-28T01:38:13;101242.19;;;9.26;97.64
42111;BME280;27766;52.174;5.456;2023-04-28T01:40:40;101239.44;;;9.22;96.35
42111;BME280;27766;52.174;5.456;2023-04-28T01:43:07;101228.28;;;9.23;98.01
42111;BME280;27766;52.174;5.456;2023-04-28T01:45:36;101228.00;;;9.13;100.00
42111;BME280;27766;52.174;5.456;2023-04-28T01:48:03;101221.94;;;9.13;100.00
42111;BME280;27766;52.174;5.456;2023-04-28T01:50:30;101215.09;;;9.13;100.00
42111;BME280;27766;52.174;5.456;2023-04-28T01:52:57;101215.25;;;9.18;100.00
42111;BME280;27766;52.174;5.456;2023-04-28T01:55:25;101209.19;;;9.17;100.00
42111;BME280;27766;52.174;5.456;2023-04-28T01:57:52;101206.41;;;9.11;99.82
42111;BME280;27766;52.174;5.456;2023-04-28T02:00:19;101218.47;;;9.11;100.00
42111;BME280;27766;52.174;5.456;2023-04-28T02:02:46;101213.47;;;9.17;100.00
42111;BME280;27766;52.174;5.456;2023-04-28T02:05:14;101202.97;;;9.11;100.00
42111;BME280;27766;52.174;5.456;2023-04-28T02:07:41;101208.28;;;9.15;100.00
42111;BME280;27766;52.174;5.456;2023-04-28T02:10:08;101202.16;;;9.12;99.95
42111;BME280;27766;52.174;5.456;2023-04-28T02:12:35;101210.00;;;9.16;99.56
42111;BME280;27766;52.174;5.456;2023-04-28T02:15:03;101192.44;;;9.05;99.54
42111;BME280;27766;52.174;5.456;2023-04-28T02:17:30;101198.69;;;9.11;100.00
42111;BME280;27766;52.174;5.456;2023-04-28T02:19:57;101214.19;;;9.13;100.00
42111;BME280;27766;52.174;5.456;2023-04-28T02:22:24;101202.19;;;9.13;99.81
42111;BME280;27766;52.174;5.456;2023-04-28T02:24:52;101187.47;;;9.11;100.00
42111;BME280;27766;52.174;5.456;2023-04-28T02:27:20;101183.06;;;9.08;100.00
42111;BME280;27766;52.174;5.456;2023-04-28T02:29:47;101186.59;;;9.10;100.00
42111;BME280;27766;52.174;5.456;2023-04-28T02:32:14;101171.09;;;9.10;100.00
42111;BME280;27766;52.174;5.456;2023-04-28T02:34:42;101170.91;;;9.04;100.00
42111;BME280;27766;52.174;5.456;2023-04-28T02:37:09;101166.69;;;9.06;100.00
42111;BME280;27766;52.174;5.456;2023-04-28T02:39:36;101164.97;;;9.07;100.00
42111;BME280;27766;52.174;5.456;2023-04-28T02:42:03;101172.72;;;9.07;100.00
42111;BME280;27766;52.174;5.456;2023-04-28T02:44:31;101165.06;;;9.10;100.00
42111;BME280;27766;52.174;5.456;2023-04-28T02:46:58;101145.06;;;9.02;100.00
42111;BME280;27766;52.174;5.456;2023-04-28T02:49:26;101162.53;;;9.11;100.00
42111;BME280;27766;52.174;5.456;2023-04-28T02:51:54;101141.69;;;9.05;100.00
42111;BME280;27766;52.174;5.456;2023-04-28T02:54:21;101153.72;;;9.05;100.00
42111;BME280;27766;52.174;5.456;2023-04-28T02:56:54;101142.63;;;9.07;100.00
42111;BME280;27766;52.174;5.456;2023-04-28T02:59:22;101140.88;;;9.06;100.00
42111;BME280;27766;52.174;5.456;2023-04-28T03:01:50;101135.63;;;9.05;100.00
42111;BME280;27766;52.174;5.456;2023-04-28T03:04:20;101128.69;;;9.02;100.00
42111;BME280;27766;52.174;5.456;2023-04-28T03:06:48;101115.69;;;8.99;100.00
42111;BME280;27766;52.174;5.456;2023-04-28T03:09:15;101107.75;;;8.93;100.00
42111;BME280;27766;52.174;5.456;2023-04-28T03:11:42;101114.75;;;8.95;100.00
42111;BME280;27766;52.174;5.456;2023-04-28T03:14:09;101116.38;;;8.93;100.00
42111;BME280;27766;52.174;5.456;2023-04-28T03:16:37;101099.75;;;8.83;100.00
42111;BME280;27766;52.174;5.456;2023-04-28T03:19:04;101106.88;;;8.92;100.00
42111;BME280;27766;52.174;5.456;2023-04-28T03:21:31;101099.97;;;8.91;100.00
42111;BME280;27766;52.174;5.456;2023-04-28T03:23:58;101101.88;;;8.97;100.00
42111;BME280;27766;52.174;5.456;2023-04-28T03:26:25;101100.00;;;8.93;100.00
42111;BME280;27766;52.174;5.456;2023-04-28T03:28:52;101097.38;;;8.91;100.00
42111;BME280;27766;52.174;5.456;2023-04-28T03:31:20;101101.72;;;8.92;100.00
42111;BME280;27766;52.174;5.456;2023-04-28T03:33:47;101080.00;;;8.85;100.00
42111;BME280;27766;52.174;5.456;2023-04-28T03:36:14;101093.19;;;8.95;100.00
42111;BME280;27766;52.174;5.456;2023-04-28T03:38:42;101101.84;;;8.95;100.00
42111;BME280;27766;52.174;5.456;2023-04-28T03:41:09;101097.50;;;8.94;100.00
42111;BME280;27766;52.174;5.456;2023-04-28T03:43:37;101084.53;;;8.93;100.00
42111;BME280;27766;52.174;5.456;2023-04-28T03:46:04;101075.06;;;8.92;100.00
42111;BME280;27766;52.174;5.456;2023-04-28T03:48:31;101070.88;;;8.97;100.00
42111;BME280;27766;52.174;5.456;2023-04-28T03:50:59;101063.97;;;8.96;100.00
42111;BME280;27766;52.174;5.456;2023-04-28T03:53:26;101058.63;;;8.90;100.00
42111;BME280;27766;52.174;5.456;2023-04-28T03:55:53;101057.81;;;8.91;100.00
42111;BME280;27766;52.174;5.456;2023-04-28T03:58:20;101065.56;;;8.91;100.00
42111;BME280;27766;52.174;5.456;2023-04-28T04:00:47;101061.91;;;8.84;100.00
42111;BME280;27766;52.174;5.456;2023-04-28T04:03:15;101062.88;;;8.87;100.00
42111;BME280;27766;52.174;5.456;2023-04-28T04:05:42;101069.66;;;8.84;100.00
42111;BME280;27766;52.174;5.456;2023-04-28T04:08:10;101061.78;;;8.79;100.00
42111;BME280;27766;52.174;5.456;2023-04-28T04:10:37;101065.19;;;8.78;100.00
42111;BME280;27766;52.174;5.456;2023-04-28T04:13:04;101060.78;;;8.74;100.00
42111;BME280;27766;52.174;5.456;2023-04-28T04:15:31;101051.19;;;8.70;100.00
42111;BME280;27766;52.174;5.456;2023-04-28T04:17:59;101053.06;;;8.76;100.00
42111;BME280;27766;52.174;5.456;2023-04-28T04:20:26;101051.38;;;8.76;100.00
42111;BME280;27766;52.174;5.456;2023-04-28T04:22:54;101048.69;;;8.73;100.00
42111;BME280;27766;52.174;5.456;2023-04-28T04:25:21;101032.28;;;8.71;100.00
42111;BME280;27766;52.174;5.456;2023-04-28T04:27:49;101032.09;;;8.63;100.00
42111;BME280;27766;52.174;5.456;2023-04-28T04:30:16;101034.72;;;8.66;100.00
42111;BME280;27766;52.174;5.456;2023-04-28T04:32:43;101032.81;;;8.59;100.00
42111;BME280;27766;52.174;5.456;2023-04-28T04:35:11;101040.00;;;8.69;100.00
42111;BME280;27766;52.174;5.456;2023-04-28T04:37:38;101027.09;;;8.69;100.00
42111;BME280;27766;52.174;5.456;2023-04-28T04:40:06;101033.25;;;8.75;100.00
42111;BME280;27766;52.174;5.456;2023-04-28T04:42:33;101016.66;;;8.66;100.00
42111;BME280;27766;52.174;5.456;2023-04-28T04:45:01;101018.72;;;8.78;100.00
42111;BME280;27766;52.174;5.456;2023-04-28T04:47:28;101021.38;;;8.80;100.00
42111;BME280;27766;52.174;5.456;2023-04-28T04:49:55;101015.31;;;8.79;100.00
42111;BME280;27766;52.174;5.456;2023-04-28T04:52:23;101002.41;;;8.79;100.00
42111;BME280;27766;52.174;5.456;2023-04-28T04:54:50;100998.22;;;8.83;100.00
42111;BME280;27766;52.174;5.456;2023-04-28T04:57:18;101013.03;;;8.90;100.00
42111;BME280;27766;52.174;5.456;2023-04-28T04:59:45;101019.09;;;8.91;100.00
42111;BME280;27766;52.174;5.456;2023-04-28T05:02:12;101004.47;;;8.91;100.00
42111;BME280;27766;52.174;5.456;2023-04-28T05:04:39;101010.59;;;8.95;100.00
42111;BME280;27766;52.174;5.456;2023-04-28T05:07:07;101008.94;;;8.97;100.00
42111;BME280;27766;52.174;5.456;2023-04-28T05:09:34;101007.25;;;8.99;100.00
42111;BME280;27766;52.174;5.456;2023-04-28T05:12:01;101009.84;;;8.99;100.00
42111;BME280;27766;52.174;5.456;2023-04-28T05:14:28;100997.63;;;8.93;100.00
42111;BME280;27766;52.174;5.456;2023-04-28T05:16:56;101015.75;;;8.95;100.00
42111;BME280;27766;52.174;5.456;2023-04-28T05:19:23;101011.63;;;9.01;100.00
42111;BME280;27766;52.174;5.456;2023-04-28T05:21:51;101011.69;;;9.05;100.00
42111;BME280;27766;52.174;5.456;2023-04-28T05:24:21;101014.22;;;9.01;100.00
42111;BME280;27766;52.174;5.456;2023-04-28T05:26:51;101015.19;;;9.07;100.00
42111;BME280;27766;52.174;5.456;2023-04-28T05:29:20;101007.44;;;9.05;100.00
42111;BME280;27766;52.174;5.456;2023-04-28T05:31:47;101008.25;;;9.04;100.00
42111;BME280;27766;52.174;5.456;2023-04-28T05:34:15;101000.59;;;9.07;100.00
42111;BME280;27766;52.174;5.456;2023-04-28T05:36:43;101003.25;;;9.10;100.00
42111;BME280;27766;52.174;5.456;2023-04-28T05:39:10;101000.72;;;9.12;100.00
42111;BME280;27766;52.174;5.456;2023-04-28T05:41:38;101013.56;;;9.10;100.00
42111;BME280;27766;52.174;5.456;2023-04-28T05:44:05;101007.59;;;9.11;100.00
42111;BME280;27766;52.174;5.456;2023-04-28T05:46:32;101016.25;;;9.13;100.00
42111;BME280;27766;52.174;5.456;2023-04-28T05:49:00;101018.88;;;9.15;100.00
42111;BME280;27766;52.174;5.456;2023-04-28T05:51:27;101017.94;;;9.13;100.00
42111;BME280;27766;52.174;5.456;2023-04-28T05:53:54;101009.31;;;9.11;100.00
42111;BME280;27766;52.174;5.456;2023-04-28T05:56:22;101010.94;;;9.07;100.00
42111;BME280;27766;52.174;5.456;2023-04-28T05:58:50;100996.97;;;9.00;100.00
42111;BME280;27766;52.174;5.456;2023-04-28T06:01:17;101014.34;;;9.06;100.00
42111;BME280;27766;52.174;5.456;2023-04-28T06:03:44;101011.78;;;9.08;100.00
42111;BME280;27766;52.174;5.456;2023-04-28T06:06:11;101006.44;;;9.00;100.00
42111;BME280;27766;52.174;5.456;2023-04-28T06:08:39;101015.91;;;9.01;100.00
42111;BME280;27766;52.174;5.456;2023-04-28T06:11:06;101003.75;;;8.97;100.00
42111;BME280;27766;52.174;5.456;2023-04-28T06:13:34;100998.28;;;8.84;100.00
42111;BME280;27766;52.174;5.456;2023-04-28T06:16:01;100983.47;;;8.79;100.00
42111;BME280;27766;52.174;5.456;2023-04-28T06:18:29;100986.88;;;8.78;100.00
42111;BME280;27766;52.174;5.456;2023-04-28T06:20:59;100983.22;;;8.69;100.00
42111;BME280;27766;52.174;5.456;2023-04-28T06:23:27;100968.56;;;8.68;100.00
42111;BME280;27766;52.174;5.456;2023-04-28T06:25:54;100964.22;;;8.67;100.00
42111;BME280;27766;52.174;5.456;2023-04-28T06:28:22;100967.72;;;8.68;100.00
42111;BME280;27766;52.174;5.456;2023-04-28T06:30:49;100967.75;;;8.69;100.00
42111;BME280;27766;52.174;5.456;2023-04-28T06:33:17;100958.59;;;8.81;100.00
42111;BME280;27766;52.174;5.456;2023-04-28T06:35:44;100972.50;;;8.86;100.00
42111;BME280;27766;52.174;5.456;2023-04-28T06:38:11;100973.47;;;8.91;100.00
42111;BME280;27766;52.174;5.456;2023-04-28T06:40:38;100963.53;;;9.05;100.00
42111;BME280;27766;52.174;5.456;2023-04-28T06:43:06;100961.25;;;9.17;100.00
42111;BME280;27766;52.174;5.456;2023-04-28T06:45:33;100961.41;;;9.24;100.00
42111;BME280;27766;52.174;5.456;2023-04-28T06:48:00;100956.56;;;9.36;100.00
42111;BME280;27766;52.174;5.456;2023-04-28T06:50:28;100965.66;;;9.55;100.00
42111;BME280;27766;52.174;5.456;2023-04-28T06:52:55;100969.31;;;9.65;100.00
42111;BME280;27766;52.174;5.456;2023-04-28T06:55:25;100967.19;;;9.84;100.00
42111;BME280;27766;52.174;5.456;2023-04-28T06:57:52;100960.41;;;9.90;100.00
42111;BME280;27766;52.174;5.456;2023-04-28T07:00:20;100964.06;;;9.98;100.00
42111;BME280;27766;52.174;5.456;2023-04-28T07:02:47;100958.97;;;10.03;100.00
42111;BME280;27766;52.174;5.456;2023-04-28T07:05:14;100958.41;;;10.17;100.00
42111;BME280;27766;52.174;5.456;2023-04-28T07:07:42;100946.38;;;10.19;100.00
42111;BME280;27766;52.174;5.456;2023-04-28T07:10:10;100944.91;;;10.30;100.00
42111;BME280;27766;52.174;5.456;2023-04-28T07:12:37;100935.34;;;10.27;100.00
42111;BME280;27766;52.174;5.456;2023-04-28T07:15:05;100948.63;;;10.43;100.00
42111;BME280;27766;52.174;5.456;2023-04-28T07:17:32;100947.88;;;10.47;100.00
42111;BME280;27766;52.174;5.456;2023-04-28T07:19:59;100941.81;;;10.47;100.00
42111;BME280;27766;52.174;5.456;2023-04-28T07:22:27;100951.19;;;10.41;100.00
42111;BME280;27766;52.174;5.456;2023-04-28T07:27:20;100950.66;;;10.56;100.00
42111;BME280;27766;52.174;5.456;2023-04-28T07:29:47;100958.47;;;10.59;100.00
42111;BME280;27766;52.174;5.456;2023-04-28T07:32:14;100955.19;;;10.68;100.00
42111;BME280;27766;52.174;5.456;2023-04-28T07:34:53;100958.88;;;10.81;100.00
42111;BME280;27766;52.174;5.456;2023-04-28T07:37:20;100947.00;;;10.92;100.00
42111;BME280;27766;52.174;5.456;2023-04-28T07:39:47;100941.91;;;10.97;100.00
42111;BME280;27766;52.174;5.456;2023-04-28T07:42:14;100957.75;;;11.14;100.00
42111;BME280;27766;52.174;5.456;2023-04-28T07:44:41;100955.44;;;11.31;100.00
42111;BME280;27766;52.174;5.456;2023-04-28T07:47:09;100947.72;;;11.33;100.00
42111;BME280;27766;52.174;5.456;2023-04-28T07:49:36;100953.09;;;11.47;100.00
42111;BME280;27766;52.174;5.456;2023-04-28T07:52:03;100944.47;;;11.46;100.00
42111;BME280;27766;52.174;5.456;2023-04-28T07:54:31;100932.44;;;11.50;100.00
42111;BME280;27766;52.174;5.456;2023-04-28T07:56:58;100936.03;;;11.61;100.00
42111;BME280;27766;52.174;5.456;2023-04-28T07:59:25;100930.00;;;11.62;100.00
42111;BME280;27766;52.174;5.456;2023-04-28T08:01:52;100932.91;;;11.81;100.00
42111;BME280;27766;52.174;5.456;2023-04-28T08:04:20;100929.44;;;11.82;100.00
42111;BME280;27766;52.174;5.456;2023-04-28T08:06:48;100942.50;;;11.88;100.00
42111;BME280;27766;52.174;5.456;2023-04-28T08:09:15;100931.47;;;12.03;100.00
42111;BME280;27766;52.174;5.456;2023-04-28T08:11:42;100930.63;;;12.02;100.00
42111;BME280;27766;52.174;5.456;2023-04-28T08:14:10;100916.78;;;12.02;100.00
42111;BME280;27766;52.174;5.456;2023-04-28T08:16:37;100927.31;;;12.13;100.00
42111;BME280;27766;52.174;5.456;2023-04-28T08:19:07;100920.41;;;12.15;100.00
42111;BME280;27766;52.174;5.456;2023-04-28T08:21:34;100926.59;;;12.25;100.00
42111;BME280;27766;52.174;5.456;2023-04-28T08:24:02;100932.75;;;12.33;100.00
42111;BME280;27766;52.174;5.456;2023-04-28T08:26:29;100926.66;;;12.31;100.00
42111;BME280;27766;52.174;5.456;2023-04-28T08:28:57;100924.13;;;12.35;100.00
42111;BME280;27766;52.174;5.456;2023-04-28T08:31:24;100944.09;;;12.41;100.00
42111;BME280;27766;52.174;5.456;2023-04-28T08:33:52;100937.84;;;12.25;100.00
42111;BME280;27766;52.174;5.456;2023-04-28T08:36:21;100944.81;;;12.29;100.00
42111;BME280;27766;52.174;5.456;2023-04-28T08:38:54;100934.34;;;12.22;100.00
42111;BME280;27766;52.174;5.456;2023-04-28T08:41:25;100930.03;;;12.24;100.00
42111;BME280;27766;52.174;5.456;2023-04-28T08:43:54;100934.34;;;12.22;100.00
42111;BME280;27766;52.174;5.456;2023-04-28T08:46:22;100932.69;;;12.28;100.00
42111;BME280;27766;52.174;5.456;2023-04-28T08:48:50;100937.06;;;12.31;100.00
42111;BME280;27766;52.174;5.456;2023-04-28T08:51:34;100933.63;;;12.35;100.00
42111;BME280;27766;52.174;5.456;2023-04-28T08:54:08;100931.91;;;12.35;100.00
42111;BME280;27766;52.174;5.456;2023-04-28T08:56:54;100927.59;;;12.38;100.00
42111;BME280;27766;52.174;5.456;2023-04-28T08:59:23;100931.19;;;12.49;100.00
42111;BME280;27766;52.174;5.456;2023-04-28T09:01:50;100932.22;;;12.60;100.00
42111;BME280;27766;52.174;5.456;2023-04-28T09:04:18;100926.19;;;12.64;100.00
42111;BME280;27766;52.174;5.456;2023-04-28T09:06:47;100925.34;;;12.67;100.00
42111;BME280;27766;52.174;5.456;2023-04-28T09:09:28;100924.56;;;12.76;100.00
42111;BME280;27766;52.174;5.456;2023-04-28T09:12:00;100927.16;;;12.74;100.00
42111;BME280;27766;52.174;5.456;2023-04-28T09:14:30;100920.19;;;12.70;100.00
42111;BME280;27766;52.174;5.456;2023-04-28T09:16:59;100912.28;;;12.59;100.00
42111;BME280;27766;52.174;5.456;2023-04-28T09:19:35;100907.06;;;12.56;100.00
42111;BME280;27766;52.174;5.456;2023-04-28T09:22:04;100913.28;;;12.72;100.00
42111;BME280;27766;52.174;5.456;2023-04-28T09:24:52;100914.16;;;12.73;100.00
42111;BME280;27766;52.174;5.456;2023-04-28T09:27:27;100910.66;;;12.71;100.00
42111;BME280;27766;52.174;5.456;2023-04-28T09:29:55;100914.09;;;12.66;100.00
42111;BME280;27766;52.174;5.456;2023-04-28T09:32:22;100916.66;;;12.63;100.00
42111;BME280;27766;52.174;5.456;2023-04-28T09:34:53;100914.94;;;12.65;100.00
42111;BME280;27766;52.174;5.456;2023-04-28T09:37:27;100920.03;;;12.55;100.00
42111;BME280;27766;52.174;5.456;2023-04-28T09:40:04;100906.13;;;12.51;100.00
42111;BME280;27766;52.174;5.456;2023-04-28T09:45:04;100915.75;;;12.58;100.00
42111;BME280;27766;52.174;5.456;2023-04-28T09:47:35;100920.94;;;12.60;100.00
42111;BME280;27766;52.174;5.456;2023-04-28T09:50:04;100906.25;;;12.63;100.00
42111;BME280;27766;52.174;5.456;2023-04-28T09:52:33;100904.66;;;12.75;100.00
42111;BME280;27766;52.174;5.456;2023-04-28T09:55:02;100903.03;;;12.85;100.00
42111;BME280;27766;52.174;5.456;2023-04-28T09:57:31;100900.41;;;12.83;100.00
42111;BME280;27766;52.174;5.456;2023-04-28T09:59:59;100894.47;;;12.96;100.00
42111;BME280;27766;52.174;5.456;2023-04-28T10:02:27;100890.13;;;12.97;100.00
42111;BME280;27766;52.174;5.456;2023-04-28T10:04:57;100903.25;;;13.11;100.00
42111;BME280;27766;52.174;5.456;2023-04-28T10:07:25;100886.91;;;13.24;100.00
42111;BME280;27766;52.174;5.456;2023-04-28T10:09:54;100889.53;;;13.29;100.00
42111;BME280;27766;52.174;5.456;2023-04-28T10:12:23;100895.53;;;13.20;100.00
42111;BME280;27766;52.174;5.456;2023-04-28T10:14:50;100886.81;;;13.15;100.00
42111;BME280;27766;52.174;5.456;2023-04-28T10:17:21;100890.31;;;13.17;100.00
42111;BME280;27766;52.174;5.456;2023-04-28T10:19:52;100889.41;;;13.13;100.00
42111;BME280;27766;52.174;5.456;2023-04-28T10:22:51;100886.81;;;13.12;100.00
42111;BME280;27766;52.174;5.456;2023-04-28T10:25:28;100885.09;;;13.14;100.00
42111;BME280;27766;52.174;5.456;2023-04-28T10:27:58;100889.44;;;13.18;100.00
42111;BME280;27766;52.174;5.456;2023-04-28T10:30:26;100897.22;;;13.13;100.00
42111;BME280;27766;52.174;5.456;2023-04-28T10:38:19;100894.66;;;13.20;100.00
42111;BME280;27766;52.174;5.456;2023-04-28T10:40:51;100894.69;;;13.21;100.00
42111;BME280;27766;52.174;5.456;2023-04-28T10:56:12;100901.72;;;13.36;100.00
42111;BME280;27766;52.174;5.456;2023-04-28T10:58:42;100887.84;;;13.34;100.00
42111;BME280;27766;52.174;5.456;2023-04-28T11:06:42;100889.66;;;13.41;100.00
42111;BME280;27766;52.174;5.456;2023-04-28T11:14:38;100878.47;;;13.53;100.00
42111;BME280;27766;52.174;5.456;2023-04-28T11:17:10;100888.97;;;13.67;100.00
42111;BME280;27766;52.174;5.456;2023-04-28T11:19:42;100889.88;;;13.77;100.00
42111;BME280;27766;52.174;5.456;2023-04-28T11:22:14;100870.78;;;13.72;100.00
42111;BME280;27766;52.174;5.456;2023-04-28T11:24:55;100880.41;;;13.87;100.00
42111;BME280;27766;52.174;5.456;2023-04-28T11:27:26;100881.28;;;13.87;100.00
42111;BME280;27766;52.174;5.456;2023-04-28T11:29:54;100862.16;;;13.81;100.00
42111;BME280;27766;52.174;5.456;2023-04-28T11:32:32;100877.84;;;13.93;100.00
42111;BME280;27766;52.174;5.456;2023-04-28T11:35:00;100866.59;;;14.00;100.00
42111;BME280;27766;52.174;5.456;2023-04-28T11:37:27;100883.06;;;14.02;100.00
42111;BME280;27766;52.174;5.456;2023-04-28T11:39:54;100874.34;;;13.89;100.00
42111;BME280;27766;52.174;5.456;2023-04-28T11:42:23;100877.88;;;13.98;100.00
42111;BME280;27766;52.174;5.456;2023-04-28T11:44:53;100880.53;;;14.16;100.00
42111;BME280;27766;52.174;5.456;2023-04-28T11:47:31;100870.97;;;14.12;100.00
42111;BME280;27766;52.174;5.456;2023-04-28T11:49:59;100877.91;;;14.18;100.00
42111;BME280;27766;52.174;5.456;2023-04-28T11:52:28;100873.63;;;14.28;100.00
42111;BME280;27766;52.174;5.456;2023-04-28T11:54:56;100869.28;;;14.25;100.00
42111;BME280;27766;52.174;5.456;2023-04-28T11:57:25;100873.59;;;14.18;100.00
42111;BME280;27766;52.174;5.456;2023-04-28T12:00:11;100877.03;;;14.05;100.00
42111;BME280;27766;52.174;5.456;2023-04-28T12:02:40;100888.28;;;14.04;100.00
42111;BME280;27766;52.174;5.456;2023-04-28T12:05:08;100884.84;;;14.05;100.00
42111;BME280;27766;52.174;5.456;2023-04-28T12:07:43;100877.88;;;14.07;100.00
42111;BME280;27766;52.174;5.456;2023-04-28T12:10:14;100888.34;;;14.19;100.00
42111;BME280;27766;52.174;5.456;2023-04-28T12:12:43;100888.31;;;14.10;100.00
42111;BME280;27766;52.174;5.456;2023-04-28T12:15:19;100885.75;;;14.19;100.00
42111;BME280;27766;52.174;5.456;2023-04-28T12:17:48;100880.56;;;14.25;100.00
42111;BME280;27766;52.174;5.456;2023-04-28T12:20:37;100889.25;;;14.29;100.00
42111;BME280;27766;52.174;5.456;2023-04-28T12:23:05;100887.44;;;14.14;100.00
42111;BME280;27766;52.174;5.456;2023-04-28T12:25:42;100886.50;;;13.93;100.00
42111;BME280;27766;52.174;5.456;2023-04-28T12:28:09;100888.25;;;14.02;100.00
42111;BME280;27766;52.174;5.456;2023-04-28T12:30:37;100882.19;;;13.99;100.00
42111;BME280;27766;52.174;5.456;2023-04-28T12:33:26;100887.34;;;13.92;100.00
42111;BME280;27766;52.174;5.456;2023-04-28T12:35:55;100895.19;;;13.97;100.00
42111;BME280;27766;52.174;5.456;2023-04-28T12:38:23;100896.06;;;13.98;100.00
42111;BME280;27766;52.174;5.456;2023-04-28T12:40:51;100891.75;;;14.01;100.00
42111;BME280;27766;52.174;5.456;2023-04-28T12:43:19;100892.50;;;13.80;100.00
42111;BME280;27766;52.174;5.456;2023-04-28T12:45:50;100894.25;;;13.83;100.00
42111;BME280;27766;52.174;5.456;2023-04-28T12:48:20;100886.44;;;13.83;100.00
42111;BME280;27766;52.174;5.456;2023-04-28T12:50:50;100893.34;;;13.74;100.00
42111;BME280;27766;52.174;5.456;2023-04-28T12:53:18;100887.31;;;13.83;100.00
42111;BME280;27766;52.174;5.456;2023-04-28T12:55:45;100889.16;;;14.01;100.00
42111;BME280;27766;52.174;5.456;2023-04-28T12:58:12;100888.25;;;14.02;100.00
42111;BME280;27766;52.174;5.456;2023-04-28T13:00:39;100887.31;;;13.80;100.00
42111;BME280;27766;52.174;5.456;2023-04-28T13:03:07;100887.31;;;13.88;100.00
42111;BME280;27766;52.174;5.456;2023-04-28T13:05:35;100895.97;;;13.81;100.00
42111;BME280;27766;52.174;5.456;2023-04-28T13:08:03;100896.88;;;13.87;100.00
42111;BME280;27766;52.174;5.456;2023-04-28T13:10:30;100890.84;;;13.95;100.00
42111;BME280;27766;52.174;5.456;2023-04-28T13:12:57;100879.56;;;13.99;100.00
42111;BME280;27766;52.174;5.456;2023-04-28T13:15:24;100893.50;;;14.05;100.00
42111;BME280;27766;52.174;5.456;2023-04-28T13:17:53;100889.19;;;14.12;100.00
42111;BME280;27766;52.174;5.456;2023-04-28T13:20:22;100895.25;;;14.09;100.00
42111;BME280;27766;52.174;5.456;2023-04-28T13:22:50;100889.19;;;14.15;100.00
42111;BME280;27766;52.174;5.456;2023-04-28T13:25:18;100891.81;;;14.21;100.00
42111;BME280;27766;52.174;5.456;2023-04-28T13:27:45;100896.19;;;14.32;100.00
42111;BME280;27766;52.174;5.456;2023-04-28T13:30:13;100897.06;;;14.35;100.00